sensor_id;sensor_type;location;lat;lon;timestamp;pressure;altitude;pressure_sealevel;temperature;humidity
52839;BME280;39219;53.678;9.856;2022-08-30T00:01:12;102041.41;;;14.96;95.25
52839;BME280;39219;53.678;9.856;2022-08-30T00:03:42;102035.25;;;14.92;95.20
52839;BME280;39219;53.678;9.856;2022-08-30T00:06:10;102036.28;;;14.87;96.09
52839;BME280;39219;53.678;9.856;2022-08-30T00:08:37;102030.84;;;14.90;95.63
52839;BME280;39219;53.678;9.856;2022-08-30T00:11:07;102032.81;;;14.80;96.35
52839;BME280;39219;53.678;9.856;2022-08-30T00:13:35;102028.31;;;14.82;96.05
52839;BME280;39219;53.678;9.856;2022-08-30T00:16:02;102018.53;;;14.83;96.06
52839;BME280;39219;53.678;9.856;2022-08-30T00:18:29;102014.97;;;14.82;95.77
52839;BME280;39219;53.678;9.856;2022-08-30T00:20:56;102021.41;;;14.72;96.54
52839;BME280;39219;53.678;9.856;2022-08-30T00:23:23;102026.09;;;14.59;97.05
52839;BME280;39219;53.678;9.856;2022-08-30T00:25:50;102028.88;;;14.54;97.76
52839;BME280;39219;53.678;9.856;2022-08-30T00:28:16;102032.56;;;14.47;98.91
52839;BME280;39219;53.678;9.856;2022-08-30T00:30:44;102030.88;;;14.43;99.72
52839;BME280;39219;53.678;9.856;2022-08-30T00:33:13;102030.09;;;14.36;100.00
52839;BME280;39219;53.678;9.856;2022-08-30T00:35:40;102029.28;;;14.32;100.00
52839;BME280;39219;53.678;9.856;2022-08-30T00:38:11;102040.88;;;14.30;100.00
52839;BME280;39219;53.678;9.856;2022-08-30T00:40:39;102043.75;;;14.20;100.00
52839;BME280;39219;53.678;9.856;2022-08-30T00:43:09;102049.03;;;14.24;100.00
52839;BME280;39219;53.678;9.856;2022-08-30T00:45:37;102050.00;;;14.19;100.00
52839;BME280;39219;53.678;9.856;2022-08-30T00:48:05;102049.09;;;14.20;100.00
52839;BME280;39219;53.678;9.856;2022-08-30T00:50:38;102056.28;;;14.17;100.00
52839;BME280;39219;53.678;9.856;2022-08-30T00:53:08;102056.38;;;14.11;100.00
52839;BME280;39219;53.678;9.856;2022-08-30T00:55:39;102059.09;;;14.07;100.00
52839;BME280;39219;53.678;9.856;2022-08-30T00:58:07;102061.66;;;14.15;100.00
52839;BME280;39219;53.678;9.856;2022-08-30T01:00:35;102059.78;;;14.20;100.00
52839;BME280;39219;53.678;9.856;2022-08-30T01:03:02;102061.41;;;14.28;100.00
52839;BME280;39219;53.678;9.856;2022-08-30T01:05:29;102060.38;;;14.36;100.00
52839;BME280;39219;53.678;9.856;2022-08-30T01:07:56;102063.00;;;14.40;100.00
52839;BME280;39219;53.678;9.856;2022-08-30T01:10:22;102066.53;;;14.40;100.00
52839;BME280;39219;53.678;9.856;2022-08-30T01:12:51;102071.72;;;14.49;100.00
52839;BME280;39219;53.678;9.856;2022-08-30T01:15:17;102070.72;;;14.55;100.00
52839;BME280;39219;53.678;9.856;2022-08-30T01:17:46;102071.47;;;14.62;100.00
52839;BME280;39219;53.678;9.856;2022-08-30T01:20:14;102076.72;;;14.66;100.00
52839;BME280;39219;53.678;9.856;2022-08-30T01:22:55;102073.19;;;14.64;100.00
52839;BME280;39219;53.678;9.856;2022-08-30T01:25:25;102074.91;;;14.69;100.00
52839;BME280;39219;53.678;9.856;2022-08-30T01:27:56;102074.81;;;14.75;100.00
52839;BME280;39219;53.678;9.856;2022-08-30T01:30:25;102072.94;;;14.80;100.00
52839;BME280;39219;53.678;9.856;2022-08-30T01:32:56;102079.13;;;14.84;100.00
52839;BME280;39219;53.678;9.856;2022-08-30T01:35:24;102088.00;;;14.84;100.00
52839;BME280;39219;53.678;9.856;2022-08-30T01:37:51;102085.25;;;14.89;100.00
52839;BME280;39219;53.678;9.856;2022-08-30T01:40:20;102086.97;;;14.91;100.00
52839;BME280;39219;53.678;9.856;2022-08-30T01:42:47;102078.84;;;14.96;100.00
52839;BME280;39219;53.678;9.856;2022-08-30T01:45:14;102071.59;;;15.01;100.00
52839;BME280;39219;53.678;9.856;2022-08-30T01:47:40;102066.19;;;15.04;99.35
52839;BME280;39219;53.678;9.856;2022-08-30T01:50:08;102067.09;;;15.05;98.79
52839;BME280;39219;53.678;9.856;2022-08-30T01:52:35;102063.56;;;15.03;99.21
52839;BME280;39219;53.678;9.856;2022-08-30T01:55:02;102074.22;;;15.04;98.34
52839;BME280;39219;53.678;9.856;2022-08-30T01:57:31;102074.25;;;15.03;98.07
52839;BME280;39219;53.678;9.856;2022-08-30T01:59:57;102066.25;;;15.01;98.14
52839;BME280;39219;53.678;9.856;2022-08-30T02:02:26;102066.19;;;15.04;97.79
52839;BME280;39219;53.678;9.856;2022-08-30T02:04:54;102068.81;;;15.07;96.93
52839;BME280;39219;53.678;9.856;2022-08-30T02:07:21;102058.09;;;15.07;97.22
52839;BME280;39219;53.678;9.856;2022-08-30T02:09:48;102061.53;;;15.14;96.64
52839;BME280;39219;53.678;9.856;2022-08-30T02:12:15;102063.31;;;15.14;96.42
52839;BME280;39219;53.678;9.856;2022-08-30T02:14:44;102066.91;;;15.13;96.64
52839;BME280;39219;53.678;9.856;2022-08-30T02:17:12;102071.34;;;15.14;96.72
52839;BME280;39219;53.678;9.856;2022-08-30T02:19:40;102070.56;;;15.08;97.21
52839;BME280;39219;53.678;9.856;2022-08-30T02:22:06;102065.06;;;15.16;95.61
52839;BME280;39219;53.678;9.856;2022-08-30T02:24:33;102058.88;;;15.13;95.86
52839;BME280;39219;53.678;9.856;2022-08-30T02:27:00;102058.09;;;15.09;95.38
52839;BME280;39219;53.678;9.856;2022-08-30T02:29:27;102052.81;;;15.06;95.11
52839;BME280;39219;53.678;9.856;2022-08-30T02:31:55;102048.50;;;14.97;96.00
52839;BME280;39219;53.678;9.856;2022-08-30T02:34:22;102047.66;;;14.97;95.10
52839;BME280;39219;53.678;9.856;2022-08-30T02:36:48;102051.22;;;14.95;95.41
52839;BME280;39219;53.678;9.856;2022-08-30T02:39:15;102057.56;;;14.91;95.97
52839;BME280;39219;53.678;9.856;2022-08-30T02:41:41;102063.81;;;14.90;96.07
52839;BME280;39219;53.678;9.856;2022-08-30T02:44:09;102062.84;;;14.94;95.35
52839;BME280;39219;53.678;9.856;2022-08-30T02:46:36;102054.88;;;14.91;95.69
52839;BME280;39219;53.678;9.856;2022-08-30T02:49:04;102063.78;;;14.92;95.60
52839;BME280;39219;53.678;9.856;2022-08-30T02:51:33;102064.56;;;14.97;95.32
52839;BME280;39219;53.678;9.856;2022-08-30T02:54:00;102070.88;;;14.94;96.31
52839;BME280;39219;53.678;9.856;2022-08-30T02:56:26;102073.47;;;14.98;96.06
52839;BME280;39219;53.678;9.856;2022-08-30T02:58:53;102063.72;;;14.95;96.39
52839;BME280;39219;53.678;9.856;2022-08-30T03:01:20;102068.09;;;14.99;96.11
52839;BME280;39219;53.678;9.856;2022-08-30T03:03:47;102061.75;;;15.05;95.22
52839;BME280;39219;53.678;9.856;2022-08-30T03:06:15;102060.75;;;15.09;94.59
52839;BME280;39219;53.678;9.856;2022-08-30T03:08:43;102059.22;;;14.97;95.32
52839;BME280;39219;53.678;9.856;2022-08-30T03:11:09;102062.72;;;14.99;95.94
52839;BME280;39219;53.678;9.856;2022-08-30T03:13:38;102063.59;;;15.01;95.27
52839;BME280;39219;53.678;9.856;2022-08-30T03:16:04;102062.72;;;14.99;96.32
52839;BME280;39219;53.678;9.856;2022-08-30T03:18:31;102054.75;;;14.98;96.87
52839;BME280;39219;53.678;9.856;2022-08-30T03:20:58;102070.63;;;15.07;95.46
52839;BME280;39219;53.678;9.856;2022-08-30T03:23:26;102061.75;;;15.05;95.84
52839;BME280;39219;53.678;9.856;2022-08-30T03:25:52;102061.75;;;15.05;95.88
52839;BME280;39219;53.678;9.856;2022-08-30T03:28:19;102056.34;;;15.06;94.96
52839;BME280;39219;53.678;9.856;2022-08-30T03:30:45;102059.00;;;15.08;95.05
52839;BME280;39219;53.678;9.856;2022-08-30T03:33:12;102063.31;;;15.15;94.07
52839;BME280;39219;53.678;9.856;2022-08-30T03:35:38;102068.00;;;15.04;94.98
52839;BME280;39219;53.678;9.856;2022-08-30T03:38:05;102064.53;;;14.99;96.15
52839;BME280;39219;53.678;9.856;2022-08-30T03:40:33;102063.50;;;15.06;96.31
52839;BME280;39219;53.678;9.856;2022-08-30T03:43:00;102056.28;;;15.09;95.90
52839;BME280;39219;53.678;9.856;2022-08-30T03:45:26;102060.88;;;15.03;96.94
52839;BME280;39219;53.678;9.856;2022-08-30T03:47:53;102061.09;;;14.92;97.68
52839;BME280;39219;53.678;9.856;2022-08-30T03:50:19;102062.91;;;14.91;98.44
52839;BME280;39219;53.678;9.856;2022-08-30T03:52:46;102068.19;;;14.94;98.52
52839;BME280;39219;53.678;9.856;2022-08-30T03:55:13;102065.56;;;14.91;99.93
52839;BME280;39219;53.678;9.856;2022-08-30T03:57:41;102066.50;;;14.90;100.00
52839;BME280;39219;53.678;9.856;2022-08-30T04:00:08;102063.81;;;14.90;100.00
52839;BME280;39219;53.678;9.856;2022-08-30T04:02:35;102062.06;;;14.89;100.00
52839;BME280;39219;53.678;9.856;2022-08-30T04:05:03;102063.81;;;14.90;100.00
52839;BME280;39219;53.678;9.856;2022-08-30T04:07:30;102058.53;;;14.87;100.00
52839;BME280;39219;53.678;9.856;2022-08-30T04:09:56;102063.94;;;14.86;100.00
52839;BME280;39219;53.678;9.856;2022-08-30T04:12:23;102071.97;;;14.84;100.00
52839;BME280;39219;53.678;9.856;2022-08-30T04:14:51;102064.72;;;14.89;100.00
52839;BME280;39219;53.678;9.856;2022-08-30T04:17:17;102072.69;;;14.92;99.87
52839;BME280;39219;53.678;9.856;2022-08-30T04:19:44;102065.63;;;14.88;100.00
52839;BME280;39219;53.678;9.856;2022-08-30T04:22:10;102071.00;;;14.88;100.00
52839;BME280;39219;53.678;9.856;2022-08-30T04:24:37;102071.91;;;14.87;100.00
52839;BME280;39219;53.678;9.856;2022-08-30T04:27:05;102075.50;;;14.86;100.00
52839;BME280;39219;53.678;9.856;2022-08-30T04:29:32;102075.53;;;14.85;100.00
52839;BME280;39219;53.678;9.856;2022-08-30T04:32:00;102073.66;;;14.90;100.00
52839;BME280;39219;53.678;9.856;2022-08-30T04:34:27;102072.66;;;14.94;100.00
52839;BME280;39219;53.678;9.856;2022-08-30T04:36:54;102078.03;;;14.92;100.00
52839;BME280;39219;53.678;9.856;2022-08-30T04:39:20;102077.91;;;14.99;100.00
52839;BME280;39219;53.678;9.856;2022-08-30T04:41:47;102079.63;;;15.01;100.00
52839;BME280;39219;53.678;9.856;2022-08-30T04:44:13;102084.13;;;15.01;100.00
52839;BME280;39219;53.678;9.856;2022-08-30T04:46:40;102084.13;;;15.01;100.00
52839;BME280;39219;53.678;9.856;2022-08-30T04:49:08;102088.63;;;14.99;100.00
52839;BME280;39219;53.678;9.856;2022-08-30T04:51:34;102089.41;;;15.02;99.48
52839;BME280;39219;53.678;9.856;2022-08-30T04:54:01;102084.13;;;14.99;99.80
52839;BME280;39219;53.678;9.856;2022-08-30T04:56:27;102092.94;;;15.06;99.01
52839;BME280;39219;53.678;9.856;2022-08-30T04:58:54;102084.84;;;15.09;98.79
52839;BME280;39219;53.678;9.856;2022-08-30T05:01:24;102099.97;;;15.10;97.60
52839;BME280;39219;53.678;9.856;2022-08-30T05:03:52;102096.41;;;15.09;97.30
52839;BME280;39219;53.678;9.856;2022-08-30T05:06:21;102100.00;;;15.08;97.80
52839;BME280;39219;53.678;9.856;2022-08-30T05:08:47;102101.81;;;15.06;98.37
52839;BME280;39219;53.678;9.856;2022-08-30T05:11:15;102099.19;;;15.05;99.10
52839;BME280;39219;53.678;9.856;2022-08-30T05:13:43;102103.50;;;15.12;98.68
52839;BME280;39219;53.678;9.856;2022-08-30T05:16:10;102101.75;;;15.09;98.73
52839;BME280;39219;53.678;9.856;2022-08-30T05:18:42;102100.06;;;15.05;99.66
52839;BME280;39219;53.678;9.856;2022-08-30T05:21:10;102101.88;;;15.03;100.00
52839;BME280;39219;53.678;9.856;2022-08-30T05:23:39;102097.50;;;15.01;100.00
52839;BME280;39219;53.678;9.856;2022-08-30T05:26:09;102102.84;;;14.99;100.00
52839;BME280;39219;53.678;9.856;2022-08-30T05:28:35;102102.84;;;15.01;100.00
52839;BME280;39219;53.678;9.856;2022-08-30T05:31:11;102096.50;;;15.05;100.00
52839;BME280;39219;53.678;9.856;2022-08-30T05:33:38;102093.78;;;15.08;100.00
52839;BME280;39219;53.678;9.856;2022-08-30T05:36:05;102103.50;;;15.10;100.00
52839;BME280;39219;53.678;9.856;2022-08-30T05:38:31;102102.59;;;15.13;100.00
52839;BME280;39219;53.678;9.856;2022-08-30T05:40:59;102091.75;;;15.19;100.00
52839;BME280;39219;53.678;9.856;2022-08-30T05:43:26;102100.53;;;15.26;100.00
52839;BME280;39219;53.678;9.856;2022-08-30T05:45:57;102103.09;;;15.31;100.00
52839;BME280;39219;53.678;9.856;2022-08-30T05:48:24;102098.44;;;15.39;100.00
52839;BME280;39219;53.678;9.856;2022-08-30T05:51:00;102106.47;;;15.40;100.00
52839;BME280;39219;53.678;9.856;2022-08-30T05:53:26;102103.59;;;15.50;100.00
52839;BME280;39219;53.678;9.856;2022-08-30T05:55:53;102103.31;;;15.61;100.00
52839;BME280;39219;53.678;9.856;2022-08-30T05:58:21;102104.94;;;15.68;99.08
52839;BME280;39219;53.678;9.856;2022-08-30T06:00:48;102105.66;;;15.76;99.46
52839;BME280;39219;53.678;9.856;2022-08-30T06:03:14;102107.22;;;15.87;98.54
52839;BME280;39219;53.678;9.856;2022-08-30T06:05:41;102100.69;;;15.98;98.86
52839;BME280;39219;53.678;9.856;2022-08-30T06:08:07;102093.13;;;16.14;96.72
52839;BME280;39219;53.678;9.856;2022-08-30T06:10:34;102101.00;;;16.22;97.14
52839;BME280;39219;53.678;9.856;2022-08-30T06:13:00;102099.78;;;16.34;94.71
52839;BME280;39219;53.678;9.856;2022-08-30T06:15:28;102106.91;;;16.35;93.72
52839;BME280;39219;53.678;9.856;2022-08-30T06:17:54;102111.13;;;16.44;93.46
52839;BME280;39219;53.678;9.856;2022-08-30T06:20:21;102113.78;;;16.46;91.67
52839;BME280;39219;53.678;9.856;2022-08-30T06:22:48;102118.63;;;16.64;92.03
52839;BME280;39219;53.678;9.856;2022-08-30T06:25:14;102116.44;;;16.79;90.44
52839;BME280;39219;53.678;9.856;2022-08-30T06:27:41;102115.53;;;17.13;90.56
52839;BME280;39219;53.678;9.856;2022-08-30T06:30:09;102111.78;;;17.49;89.69
52839;BME280;39219;53.678;9.856;2022-08-30T06:32:37;102110.88;;;17.78;86.34
52839;BME280;39219;53.678;9.856;2022-08-30T06:35:05;102107.81;;;17.89;86.19
52839;BME280;39219;53.678;9.856;2022-08-30T06:37:33;102119.34;;;18.21;83.97
52839;BME280;39219;53.678;9.856;2022-08-30T06:40:00;102124.69;;;18.73;83.97
52839;BME280;39219;53.678;9.856;2022-08-30T06:42:29;102126.16;;;19.77;77.64
52839;BME280;39219;53.678;9.856;2022-08-30T06:44:58;102127.94;;;21.25;71.10
52839;BME280;39219;53.678;9.856;2022-08-30T06:47:24;102133.81;;;23.14;60.99
52839;BME280;39219;53.678;9.856;2022-08-30T06:49:52;102131.47;;;22.90;61.82
52839;BME280;39219;53.678;9.856;2022-08-30T06:52:18;102123.22;;;22.23;62.55
52839;BME280;39219;53.678;9.856;2022-08-30T06:54:45;102118.78;;;21.67;66.20
52839;BME280;39219;53.678;9.856;2022-08-30T06:57:12;102121.16;;;21.35;67.16
52839;BME280;39219;53.678;9.856;2022-08-30T06:59:38;102121.09;;;21.56;67.30
52839;BME280;39219;53.678;9.856;2022-08-30T07:02:05;102122.34;;;22.22;65.79
52839;BME280;39219;53.678;9.856;2022-08-30T07:04:32;102114.19;;;22.59;63.50
52839;BME280;39219;53.678;9.856;2022-08-30T07:07:00;102126.13;;;23.06;62.45
52839;BME280;39219;53.678;9.856;2022-08-30T07:09:27;102117.16;;;22.88;62.50
52839;BME280;39219;53.678;9.856;2022-08-30T07:11:54;102122.06;;;22.28;64.62
52839;BME280;39219;53.678;9.856;2022-08-30T07:14:21;102127.38;;;22.12;66.25
52839;BME280;39219;53.678;9.856;2022-08-30T07:16:48;102125.53;;;21.57;68.27
52839;BME280;39219;53.678;9.856;2022-08-30T07:19:14;102122.75;;;21.01;71.31
52839;BME280;39219;53.678;9.856;2022-08-30T07:21:41;102121.81;;;20.81;73.46
52839;BME280;39219;53.678;9.856;2022-08-30T07:24:10;102122.00;;;20.97;73.54
52839;BME280;39219;53.678;9.856;2022-08-30T07:26:39;102126.94;;;20.88;73.40
52839;BME280;39219;53.678;9.856;2022-08-30T07:29:07;102121.94;;;20.57;74.51
52839;BME280;39219;53.678;9.856;2022-08-30T07:31:34;102125.75;;;20.10;76.84
52839;BME280;39219;53.678;9.856;2022-08-30T07:34:02;102124.75;;;20.13;77.38
52839;BME280;39219;53.678;9.856;2022-08-30T07:36:29;102130.44;;;20.27;76.76
52839;BME280;39219;53.678;9.856;2022-08-30T07:38:55;102138.78;;;20.63;76.56
52839;BME280;39219;53.678;9.856;2022-08-30T07:41:26;102140.44;;;20.46;75.87
52839;BME280;39219;53.678;9.856;2022-08-30T07:43:54;102141.09;;;20.31;78.20
52839;BME280;39219;53.678;9.856;2022-08-30T07:46:21;102141.13;;;20.29;77.24
52839;BME280;39219;53.678;9.856;2022-08-30T07:48:48;102139.28;;;20.09;79.20
52839;BME280;39219;53.678;9.856;2022-08-30T07:51:17;102144.00;;;20.04;79.89
52839;BME280;39219;53.678;9.856;2022-08-30T07:53:44;102139.38;;;20.07;79.40
52839;BME280;39219;53.678;9.856;2022-08-30T07:56:11;102145.66;;;20.29;79.31
52839;BME280;39219;53.678;9.856;2022-08-30T07:58:39;102142.63;;;20.36;79.19
52839;BME280;39219;53.678;9.856;2022-08-30T08:01:07;102139.06;;;20.36;78.03
52839;BME280;39219;53.678;9.856;2022-08-30T08:03:35;102143.03;;;20.27;78.44
52839;BME280;39219;53.678;9.856;2022-08-30T08:06:05;102138.66;;;20.24;78.43
52839;BME280;39219;53.678;9.856;2022-08-30T08:08:33;102142.94;;;20.08;78.68
52839;BME280;39219;53.678;9.856;2022-08-30T08:11:05;102142.09;;;19.83;80.70
52839;BME280;39219;53.678;9.856;2022-08-30T08:13:33;102142.47;;;19.96;80.40
52839;BME280;39219;53.678;9.856;2022-08-30T08:16:03;102157.22;;;20.10;80.71
52839;BME280;39219;53.678;9.856;2022-08-30T08:18:29;102144.63;;;20.10;79.40
52839;BME280;39219;53.678;9.856;2022-08-30T08:20:57;102163.13;;;20.20;79.09
52839;BME280;39219;53.678;9.856;2022-08-30T08:23:23;102153.03;;;20.46;78.66
52839;BME280;39219;53.678;9.856;2022-08-30T08:25:50;102161.63;;;20.12;78.58
52839;BME280;39219;53.678;9.856;2022-08-30T08:28:17;102165.38;;;20.08;79.46
52839;BME280;39219;53.678;9.856;2022-08-30T08:30:43;102157.03;;;19.92;79.99
52839;BME280;39219;53.678;9.856;2022-08-30T08:33:11;102170.88;;;19.83;80.72
52839;BME280;39219;53.678;9.856;2022-08-30T08:35:38;102170.94;;;20.04;80.09
52839;BME280;39219;53.678;9.856;2022-08-30T08:38:05;102168.91;;;19.87;79.76
52839;BME280;39219;53.678;9.856;2022-08-30T08:40:34;102178.16;;;19.81;81.02
52839;BME280;39219;53.678;9.856;2022-08-30T08:43:10;102178.03;;;19.84;80.54
52839;BME280;39219;53.678;9.856;2022-08-30T08:45:44;102184.94;;;19.91;80.57
52839;BME280;39219;53.678;9.856;2022-08-30T08:48:24;102179.16;;;20.01;78.69
52839;BME280;39219;53.678;9.856;2022-08-30T08:50:53;102176.94;;;19.88;78.91
52839;BME280;39219;53.678;9.856;2022-08-30T08:53:39;102179.84;;;20.06;78.98
52839;BME280;39219;53.678;9.856;2022-08-30T08:56:11;102171.97;;;20.23;77.88
52839;BME280;39219;53.678;9.856;2022-08-30T08:58:42;102183.00;;;20.60;75.55
52839;BME280;39219;53.678;9.856;2022-08-30T09:01:11;102182.16;;;20.80;75.17
52839;BME280;39219;53.678;9.856;2022-08-30T09:03:41;102190.78;;;20.89;74.33
52839;BME280;39219;53.678;9.856;2022-08-30T09:06:19;102187.16;;;20.90;73.71
52839;BME280;39219;53.678;9.856;2022-08-30T09:08:47;102185.63;;;20.62;74.47
52839;BME280;39219;53.678;9.856;2022-08-30T09:11:20;102184.53;;;20.45;75.08
52839;BME280;39219;53.678;9.856;2022-08-30T09:13:48;102183.56;;;20.25;76.40
52839;BME280;39219;53.678;9.856;2022-08-30T09:16:49;102187.31;;;20.21;76.67
52839;BME280;39219;53.678;9.856;2022-08-30T09:19:31;102193.03;;;20.14;77.65
52839;BME280;39219;53.678;9.856;2022-08-30T09:22:01;102187.81;;;20.09;77.59
52839;BME280;39219;53.678;9.856;2022-08-30T09:24:36;102189.00;;;20.02;77.76
52839;BME280;39219;53.678;9.856;2022-08-30T09:27:17;102188.25;;;20.20;76.23
52839;BME280;39219;53.678;9.856;2022-08-30T09:30:03;102180.22;;;20.41;75.35
52839;BME280;39219;53.678;9.856;2022-08-30T09:32:34;102182.22;;;20.36;74.88
52839;BME280;39219;53.678;9.856;2022-08-30T09:35:03;102183.34;;;20.30;75.43
52839;BME280;39219;53.678;9.856;2022-08-30T09:37:38;102181.13;;;20.62;73.70
52839;BME280;39219;53.678;9.856;2022-08-30T09:40:13;102189.22;;;20.62;72.59
52839;BME280;39219;53.678;9.856;2022-08-30T09:42:40;102189.31;;;20.81;72.09
52839;BME280;39219;53.678;9.856;2022-08-30T09:45:17;102193.75;;;21.03;70.48
52839;BME280;39219;53.678;9.856;2022-08-30T09:47:45;102194.19;;;21.34;69.77
52839;BME280;39219;53.678;9.856;2022-08-30T09:50:14;102196.41;;;21.64;67.61
52839;BME280;39219;53.678;9.856;2022-08-30T09:52:51;102189.13;;;21.26;67.53
52839;BME280;39219;53.678;9.856;2022-08-30T09:55:28;102190.03;;;21.45;66.98
52839;BME280;39219;53.678;9.856;2022-08-30T09:58:05;102196.03;;;21.52;66.32
52839;BME280;39219;53.678;9.856;2022-08-30T10:00:39;102193.38;;;21.51;66.68
52839;BME280;39219;53.678;9.856;2022-08-30T10:03:19;102199.06;;;21.44;64.96
52839;BME280;39219;53.678;9.856;2022-08-30T10:05:56;102201.13;;;21.39;65.40
52839;BME280;39219;53.678;9.856;2022-08-30T10:08:33;102196.22;;;21.48;65.54
52839;BME280;39219;53.678;9.856;2022-08-30T10:11:06;102198.81;;;21.11;67.29
52839;BME280;39219;53.678;9.856;2022-08-30T10:13:52;102206.06;;;21.29;66.18
52839;BME280;39219;53.678;9.856;2022-08-30T10:16:33;102203.81;;;21.58;64.21
52839;BME280;39219;53.678;9.856;2022-08-30T10:19:15;102199.94;;;21.85;62.82
52839;BME280;39219;53.678;9.856;2022-08-30T10:21:49;102201.22;;;22.14;61.66
52839;BME280;39219;53.678;9.856;2022-08-30T10:24:21;102195.00;;;22.49;60.97
52839;BME280;39219;53.678;9.856;2022-08-30T10:26:54;102197.31;;;22.57;59.80
52839;BME280;39219;53.678;9.856;2022-08-30T10:29:27;102198.66;;;22.83;58.55
52839;BME280;39219;53.678;9.856;2022-08-30T10:31:58;102186.22;;;22.97;57.72
52839;BME280;39219;53.678;9.856;2022-08-30T10:34:31;102186.25;;;23.30;56.70
52839;BME280;39219;53.678;9.856;2022-08-30T10:37:04;102183.91;;;23.56;56.92
52839;BME280;39219;53.678;9.856;2022-08-30T10:39:36;102181.06;;;23.75;54.66
52839;BME280;39219;53.678;9.856;2022-08-30T10:42:08;102184.44;;;23.95;54.43
52839;BME280;39219;53.678;9.856;2022-08-30T10:44:38;102185.06;;;23.18;53.73
52839;BME280;39219;53.678;9.856;2022-08-30T10:47:13;102178.09;;;22.79;56.31
52839;BME280;39219;53.678;9.856;2022-08-30T10:49:47;102180.22;;;23.07;56.20
52839;BME280;39219;53.678;9.856;2022-08-30T10:52:24;102188.56;;;23.70;56.56
52839;BME280;39219;53.678;9.856;2022-08-30T10:54:55;102186.94;;;24.00;53.68
52839;BME280;39219;53.678;9.856;2022-08-30T10:57:24;102190.19;;;23.07;54.27
52839;BME280;39219;53.678;9.856;2022-08-30T10:59:53;102186.63;;;22.71;56.90
52839;BME280;39219;53.678;9.856;2022-08-30T11:02:36;102189.09;;;22.93;56.51
52839;BME280;39219;53.678;9.856;2022-08-30T11:05:29;102188.06;;;22.78;56.91
52839;BME280;39219;53.678;9.856;2022-08-30T11:08:09;102187.97;;;22.80;55.85
52839;BME280;39219;53.678;9.856;2022-08-30T11:10:46;102180.22;;;22.90;56.86
52839;BME280;39219;53.678;9.856;2022-08-30T11:13:17;102180.66;;;22.65;57.78
52839;BME280;39219;53.678;9.856;2022-08-30T11:15:55;102179.22;;;22.75;57.93
52839;BME280;39219;53.678;9.856;2022-08-30T11:18:24;102188.53;;;23.20;56.24
52839;BME280;39219;53.678;9.856;2022-08-30T11:20:53;102172.81;;;23.45;53.18
52839;BME280;39219;53.678;9.856;2022-08-30T11:23:28;102178.84;;;23.82;52.44
52839;BME280;39219;53.678;9.856;2022-08-30T11:25:58;102179.75;;;23.83;52.72
52839;BME280;39219;53.678;9.856;2022-08-30T11:29:01;102181.91;;;23.60;49.82
52839;BME280;39219;53.678;9.856;2022-08-30T11:31:40;102179.91;;;23.95;53.71
52839;BME280;39219;53.678;9.856;2022-08-30T11:34:08;102172.66;;;23.64;52.59
52839;BME280;39219;53.678;9.856;2022-08-30T11:36:59;102173.72;;;23.28;52.08
52839;BME280;39219;53.678;9.856;2022-08-30T11:42:36;102171.31;;;23.55;53.96
52839;BME280;39219;53.678;9.856;2022-08-30T11:45:44;102158.13;;;23.81;52.42
52839;BME280;39219;53.678;9.856;2022-08-30T11:51:37;102165.69;;;24.53;51.43
52839;BME280;39219;53.678;9.856;2022-08-30T11:54:15;102165.06;;;24.64;49.90
52839;BME280;39219;53.678;9.856;2022-08-30T11:56:55;102164.06;;;23.88;50.41
52839;BME280;39219;53.678;9.856;2022-08-30T11:59:31;102165.75;;;23.25;52.28
52839;BME280;39219;53.678;9.856;2022-08-30T12:02:02;102161.09;;;22.93;53.65
52839;BME280;39219;53.678;9.856;2022-08-30T12:04:39;102159.63;;;22.34;56.12
52839;BME280;39219;53.678;9.856;2022-08-30T12:07:08;102166.84;;;22.16;56.55
52839;BME280;39219;53.678;9.856;2022-08-30T12:09:59;102160.25;;;21.85;56.09
52839;BME280;39219;53.678;9.856;2022-08-30T12:12:50;102175.00;;;21.59;57.46
52839;BME280;39219;53.678;9.856;2022-08-30T12:15:52;102166.69;;;21.64;56.37
52839;BME280;39219;53.678;9.856;2022-08-30T12:18:24;102168.19;;;21.88;55.98
52839;BME280;39219;53.678;9.856;2022-08-30T12:20:56;102165.56;;;22.06;56.32
52839;BME280;39219;53.678;9.856;2022-08-30T12:23:32;102166.91;;;22.15;56.08
52839;BME280;39219;53.678;9.856;2022-08-30T12:26:18;102163.25;;;22.16;55.77
52839;BME280;39219;53.678;9.856;2022-08-30T12:28:46;102159.78;;;21.95;55.80
52839;BME280;39219;53.678;9.856;2022-08-30T12:31:19;102155.34;;;21.94;55.85
52839;BME280;39219;53.678;9.856;2022-08-30T12:33:49;102159.44;;;21.83;56.95
52839;BME280;39219;53.678;9.856;2022-08-30T12:36:32;102164.28;;;22.31;55.86
52839;BME280;39219;53.678;9.856;2022-08-30T12:39:09;102161.69;;;22.29;55.58
52839;BME280;39219;53.678;9.856;2022-08-30T12:41:36;102160.19;;;22.04;55.26
52839;BME280;39219;53.678;9.856;2022-08-30T12:44:03;102168.00;;;22.11;55.94
52839;BME280;39219;53.678;9.856;2022-08-30T12:46:34;102165.09;;;22.15;55.08
52839;BME280;39219;53.678;9.856;2022-08-30T12:49:01;102164.53;;;22.26;54.71
52839;BME280;39219;53.678;9.856;2022-08-30T12:51:34;102162.38;;;22.33;54.71
52839;BME280;39219;53.678;9.856;2022-08-30T12:54:04;102160.38;;;22.56;53.47
52839;BME280;39219;53.678;9.856;2022-08-30T12:56:47;102157.53;;;22.92;52.84
52839;BME280;39219;53.678;9.856;2022-08-30T12:59:42;102145.19;;;23.20;52.11
52839;BME280;39219;53.678;9.856;2022-08-30T13:02:14;102145.78;;;23.10;51.87
52839;BME280;39219;53.678;9.856;2022-08-30T13:04:42;102146.25;;;22.84;52.60
52839;BME280;39219;53.678;9.856;2022-08-30T13:07:23;102146.66;;;22.76;52.63
52839;BME280;39219;53.678;9.856;2022-08-30T13:09:59;102137.41;;;22.81;51.73